sensor_id;sensor_type;location;lat;lon;timestamp;pressure;altitude;pressure_sealevel;temperature
77599;BMP280;66758;52.078;5.070;2023-06-01T00:01:40;102609.22;;;11.06
77599;BMP280;66758;52.078;5.070;2023-06-01T00:04:07;102609.38;;;11.09
77599;BMP280;66758;52.078;5.070;2023-06-01T00:06:34;102614.78;;;11.01
77599;BMP280;66758;52.078;5.070;2023-06-01T00:08:59;102610.19;;;11.10
77599;BMP280;66758;52.078;5.070;2023-06-01T00:11:25;102600.66;;;11.07
77599;BMP280;66758;52.078;5.070;2023-06-01T00:13:52;102612.56;;;11.03
77599;BMP280;66758;52.078;5.070;2023-06-01T00:16:17;102611.06;;;10.96
77599;BMP280;66758;52.078;5.070;2023-06-01T00:18:43;102610.44;;;10.99
77599;BMP280;66758;52.078;5.070;2023-06-01T00:21:10;102612.25;;;11.04
77599;BMP280;66758;52.078;5.070;2023-06-01T00:23:36;102609.94;;;10.97
77599;BMP280;66758;52.078;5.070;2023-06-01T00:26:02;102616.72;;;11.00
77599;BMP280;66758;52.078;5.070;2023-06-01T00:28:28;102611.56;;;10.98
77599;BMP280;66758;52.078;5.070;2023-06-01T00:30:53;102599.84;;;11.07
77599;BMP280;66758;52.078;5.070;2023-06-01T00:33:20;102605.81;;;11.09
77599;BMP280;66758;52.078;5.070;2023-06-01T00:35:45;102606.69;;;11.18
77599;BMP280;66758;52.078;5.070;2023-06-01T00:38:11;102600.47;;;11.04
77599;BMP280;66758;52.078;5.070;2023-06-01T00:40:37;102611.06;;;10.96
77599;BMP280;66758;52.078;5.070;2023-06-01T00:43:03;102606.03;;;11.12
77599;BMP280;66758;52.078;5.070;2023-06-01T00:45:28;102604.94;;;10.99
77599;BMP280;66758;52.078;5.070;2023-06-01T00:47:54;102605.97;;;11.04
77599;BMP280;66758;52.078;5.070;2023-06-01T00:50:21;102598.22;;;11.06
77599;BMP280;66758;52.078;5.070;2023-06-01T00:52:48;102599.66;;;11.03
77599;BMP280;66758;52.078;5.070;2023-06-01T00:55:14;102601.16;;;11.09
77599;BMP280;66758;52.078;5.070;2023-06-01T00:57:40;102601.09;;;11.23
77599;BMP280;66758;52.078;5.070;2023-06-01T01:00:08;102596.78;;;11.08
77599;BMP280;66758;52.078;5.070;2023-06-01T01:02:39;102607.34;;;11.15
77599;BMP280;66758;52.078;5.070;2023-06-01T01:05:09;102601.44;;;11.08
77599;BMP280;66758;52.078;5.070;2023-06-01T01:07:42;102609.44;;;11.18
77599;BMP280;66758;52.078;5.070;2023-06-01T01:15:54;102613.13;;;11.13
77599;BMP280;66758;52.078;5.070;2023-06-01T01:18:27;102606.31;;;10.88
77599;BMP280;66758;52.078;5.070;2023-06-01T01:21:01;102600.97;;;10.83
77599;BMP280;66758;52.078;5.070;2023-06-01T01:23:55;102591.88;;;10.74
77599;BMP280;66758;52.078;5.070;2023-06-01T01:29:09;102600.91;;;10.97
77599;BMP280;66758;52.078;5.070;2023-06-01T01:31:34;102600.66;;;11.07
77599;BMP280;66758;52.078;5.070;2023-06-01T01:34:01;102599.84;;;11.07
77599;BMP280;66758;52.078;5.070;2023-06-01T01:36:28;102602.91;;;11.05
77599;BMP280;66758;52.078;5.070;2023-06-01T01:38:54;102605.06;;;10.94
77599;BMP280;66758;52.078;5.070;2023-06-01T01:41:20;102599.22;;;10.87
77599;BMP280;66758;52.078;5.070;2023-06-01T01:43:48;102598.59;;;10.90
77599;BMP280;66758;52.078;5.070;2023-06-01T01:46:27;102604.25;;;10.94
77599;BMP280;66758;52.078;5.070;2023-06-01T01:49:16;102603.16;;;10.95
77599;BMP280;66758;52.078;5.070;2023-06-01T01:54:09;102600.91;;;10.97
77599;BMP280;66758;52.078;5.070;2023-06-01T01:56:36;102592.38;;;10.98
77599;BMP280;66758;52.078;5.070;2023-06-01T01:59:03;102593.44;;;10.89
77599;BMP280;66758;52.078;5.070;2023-06-01T02:01:29;102595.88;;;10.90
77599;BMP280;66758;52.078;5.070;2023-06-01T02:04:04;102589.94;;;10.97
77599;BMP280;66758;52.078;5.070;2023-06-01T02:06:33;102599.09;;;10.92
77599;BMP280;66758;52.078;5.070;2023-06-01T02:08:59;102596.16;;;10.89
77599;BMP280;66758;52.078;5.070;2023-06-01T02:11:25;102596.16;;;10.89
77599;BMP280;66758;52.078;5.070;2023-06-01T02:13:50;102586.69;;;10.95
77599;BMP280;66758;52.078;5.070;2023-06-01T02:16:16;102585.00;;;10.85
77599;BMP280;66758;52.078;5.070;2023-06-01T02:18:43;102591.59;;;10.84
77599;BMP280;66758;52.078;5.070;2023-06-01T02:21:11;102573.72;;;10.87
77599;BMP280;66758;52.078;5.070;2023-06-01T02:23:37;102573.94;;;10.90
77599;BMP280;66758;52.078;5.070;2023-06-01T02:26:05;102570.47;;;10.85
77599;BMP280;66758;52.078;5.070;2023-06-01T02:28:31;102575.16;;;10.84
77599;BMP280;66758;52.078;5.070;2023-06-01T02:30:56;102578.97;;;10.97
77599;BMP280;66758;52.078;5.070;2023-06-01T02:33:22;102573.34;;;10.80
77599;BMP280;66758;52.078;5.070;2023-06-01T02:35:50;102577.78;;;10.89
77599;BMP280;66758;52.078;5.070;2023-06-01T02:38:16;102573.94;;;10.90
77599;BMP280;66758;52.078;5.070;2023-06-01T02:40:41;102582.25;;;10.85
77599;BMP280;66758;52.078;5.070;2023-06-01T02:43:06;102580.22;;;10.91
77599;BMP280;66758;52.078;5.070;2023-06-01T02:45:32;102578.91;;;10.88
77599;BMP280;66758;52.078;5.070;2023-06-01T02:47:57;102575.91;;;10.98
77599;BMP280;66758;52.078;5.070;2023-06-01T02:50:23;102574.91;;;10.94
77599;BMP280;66758;52.078;5.070;2023-06-01T02:52:48;102575.28;;;10.79
77599;BMP280;66758;52.078;5.070;2023-06-01T02:55:13;102575.72;;;10.95
77599;BMP280;66758;52.078;5.070;2023-06-01T02:57:39;102570.25;;;10.95
77599;BMP280;66758;52.078;5.070;2023-06-01T03:00:05;102577.47;;;10.91
77599;BMP280;66758;52.078;5.070;2023-06-01T03:02:47;102579.78;;;10.97
77599;BMP280;66758;52.078;5.070;2023-06-01T03:05:14;102560.69;;;10.92
77599;BMP280;66758;52.078;5.070;2023-06-01T03:07:40;102568.09;;;10.92
77599;BMP280;66758;52.078;5.070;2023-06-01T03:10:07;102566.69;;;10.94
77599;BMP280;66758;52.078;5.070;2023-06-01T03:12:34;102575.84;;;11.12
77599;BMP280;66758;52.078;5.070;2023-06-01T03:15:00;102570.16;;;11.09
77599;BMP280;66758;52.078;5.070;2023-06-01T03:17:25;102572.34;;;11.20
77599;BMP280;66758;52.078;5.070;2023-06-01T03:19:51;102578.81;;;11.24
77599;BMP280;66758;52.078;5.070;2023-06-01T03:22:16;102575.19;;;11.15
77599;BMP280;66758;52.078;5.070;2023-06-01T03:24:42;102579.34;;;11.04
77599;BMP280;66758;52.078;5.070;2023-06-01T03:27:07;102568.53;;;11.08
77599;BMP280;66758;52.078;5.070;2023-06-01T03:29:33;102572.44;;;11.07
77599;BMP280;66758;52.078;5.070;2023-06-01T03:31:59;102572.09;;;11.08
77599;BMP280;66758;52.078;5.070;2023-06-01T03:34:25;102566.81;;;11.12
77599;BMP280;66758;52.078;5.070;2023-06-01T03:36:52;102575.97;;;11.07
77599;BMP280;66758;52.078;5.070;2023-06-01T03:39:18;102574.31;;;11.28
77599;BMP280;66758;52.078;5.070;2023-06-01T03:41:44;102575.63;;;11.31
77599;BMP280;66758;52.078;5.070;2023-06-01T03:44:10;102577.84;;;11.20
77599;BMP280;66758;52.078;5.070;2023-06-01T03:46:36;102580.50;;;11.34
77599;BMP280;66758;52.078;5.070;2023-06-01T03:49:02;102578.81;;;11.24
77599;BMP280;66758;52.078;5.070;2023-06-01T03:51:27;102582.56;;;11.28
77599;BMP280;66758;52.078;5.070;2023-06-01T03:53:54;102583.50;;;11.02
77599;BMP280;66758;52.078;5.070;2023-06-01T03:56:20;102583.69;;;11.05
77599;BMP280;66758;52.078;5.070;2023-06-01T03:58:45;102589.63;;;10.98
77599;BMP280;66758;52.078;5.070;2023-06-01T04:01:12;102587.88;;;11.03
77599;BMP280;66758;52.078;5.070;2023-06-01T04:03:43;102592.25;;;11.04
77599;BMP280;66758;52.078;5.070;2023-06-01T04:06:09;102583.88;;;11.09
77599;BMP280;66758;52.078;5.070;2023-06-01T04:08:39;102582.38;;;11.03
77599;BMP280;66758;52.078;5.070;2023-06-01T04:11:13;102579.88;;;10.92
77599;BMP280;66758;52.078;5.070;2023-06-01T04:13:39;102585.38;;;10.92
77599;BMP280;66758;52.078;5.070;2023-06-01T04:16:04;102581.78;;;11.06
77599;BMP280;66758;52.078;5.070;2023-06-01T04:18:30;102587.63;;;11.13
77599;BMP280;66758;52.078;5.070;2023-06-01T04:20:56;102577.91;;;11.07
77599;BMP280;66758;52.078;5.070;2023-06-01T04:23:22;102590.22;;;11.18
77599;BMP280;66758;52.078;5.070;2023-06-01T04:25:47;102590.56;;;10.94
77599;BMP280;66758;52.078;5.070;2023-06-01T04:28:16;102579.66;;;11.03
77599;BMP280;66758;52.078;5.070;2023-06-01T04:30:41;102591.44;;;11.03
77599;BMP280;66758;52.078;5.070;2023-06-01T04:33:09;102585.81;;;11.08
77599;BMP280;66758;52.078;5.070;2023-06-01T04:35:35;102587.00;;;10.93
77599;BMP280;66758;52.078;5.070;2023-06-01T04:38:02;102590.09;;;11.01
77599;BMP280;66758;52.078;5.070;2023-06-01T04:40:28;102571.28;;;11.08
77599;BMP280;66758;52.078;5.070;2023-06-01T04:42:53;102584.34;;;11.33
77599;BMP280;66758;52.078;5.070;2023-06-01T04:45:23;102579.09;;;11.14
77599;BMP280;66758;52.078;5.070;2023-06-01T04:47:48;102585.56;;;11.18
77599;BMP280;66758;52.078;5.070;2023-06-01T04:50:15;102581.19;;;11.17
77599;BMP280;66758;52.078;5.070;2023-06-01T04:52:42;102583.63;;;11.19
77599;BMP280;66758;52.078;5.070;2023-06-01T04:55:08;102596.91;;;11.03
77599;BMP280;66758;52.078;5.070;2023-06-01T04:57:35;102602.03;;;11.18
77599;BMP280;66758;52.078;5.070;2023-06-01T05:00:02;102594.03;;;11.30
77599;BMP280;66758;52.078;5.070;2023-06-01T05:02:29;102592.63;;;11.42
77599;BMP280;66758;52.078;5.070;2023-06-01T05:04:54;102592.69;;;11.50
77599;BMP280;66758;52.078;5.070;2023-06-01T05:07:20;102588.84;;;11.29
77599;BMP280;66758;52.078;5.070;2023-06-01T05:09:46;102591.22;;;11.44
77599;BMP280;66758;52.078;5.070;2023-06-01T05:12:12;102589.16;;;11.58
77599;BMP280;66758;52.078;5.070;2023-06-01T05:14:38;102587.44;;;11.40
77599;BMP280;66758;52.078;5.070;2023-06-01T05:17:03;102599.28;;;11.49
77599;BMP280;66758;52.078;5.070;2023-06-01T05:19:29;102595.00;;;11.65
77599;BMP280;66758;52.078;5.070;2023-06-01T05:21:55;102599.66;;;11.56
77599;BMP280;66758;52.078;5.070;2023-06-01T05:24:20;102594.72;;;11.67
77599;BMP280;66758;52.078;5.070;2023-06-01T05:26:46;102588.88;;;11.68
77599;BMP280;66758;52.078;5.070;2023-06-01T05:29:11;102591.97;;;11.67
77599;BMP280;66758;52.078;5.070;2023-06-01T05:31:37;102586.97;;;11.77
77599;BMP280;66758;52.078;5.070;2023-06-01T05:34:03;102591.38;;;11.87
77599;BMP280;66758;52.078;5.070;2023-06-01T05:36:28;102581.72;;;11.90
77599;BMP280;66758;52.078;5.070;2023-06-01T09:00:29;102583.91;;;16.21
77599;BMP280;66758;52.078;5.070;2023-06-01T09:02:55;102583.00;;;16.89
77599;BMP280;66758;52.078;5.070;2023-06-01T09:05:21;102585.00;;;16.05
77599;BMP280;66758;52.078;5.070;2023-06-01T09:07:48;102585.66;;;16.42
77599;BMP280;66758;52.078;5.070;2023-06-01T09:10:22;102582.38;;;15.96
77599;BMP280;66758;52.078;5.070;2023-06-01T09:12:53;102586.31;;;15.71
77599;BMP280;66758;52.078;5.070;2023-06-01T09:15:19;102587.84;;;15.44
77599;BMP280;66758;52.078;5.070;2023-06-01T09:17:49;102587.72;;;15.65
77599;BMP280;66758;52.078;5.070;2023-06-01T09:20:35;102572.81;;;15.94
77599;BMP280;66758;52.078;5.070;2023-06-01T09:23:02;102571.06;;;16.01
77599;BMP280;66758;52.078;5.070;2023-06-01T09:25:29;102581.09;;;15.94
77599;BMP280;66758;52.078;5.070;2023-06-01T09:27:57;102566.78;;;16.04
77599;BMP280;66758;52.078;5.070;2023-06-01T09:30:24;102568.13;;;16.50
77599;BMP280;66758;52.078;5.070;2023-06-01T09:32:51;102560.13;;;15.93
77599;BMP280;66758;52.078;5.070;2023-06-01T09:35:42;102563.84;;;16.52
77599;BMP280;66758;52.078;5.070;2023-06-01T09:38:08;102559.44;;;16.95
77599;BMP280;66758;52.078;5.070;2023-06-01T09:40:34;102551.41;;;16.46
77599;BMP280;66758;52.078;5.070;2023-06-01T09:43:00;102552.16;;;16.31
77599;BMP280;66758;52.078;5.070;2023-06-01T09:45:30;102551.81;;;16.92
77599;BMP280;66758;52.078;5.070;2023-06-01T09:48:15;102551.78;;;16.17
77599;BMP280;66758;52.078;5.070;2023-06-01T09:50:42;102552.88;;;16.56
77599;BMP280;66758;52.078;5.070;2023-06-01T09:53:09;102554.81;;;16.40
77599;BMP280;66758;52.078;5.070;2023-06-01T09:55:36;102556.66;;;16.79
77599;BMP280;66758;52.078;5.070;2023-06-01T09:58:21;102549.09;;;17.77
77599;BMP280;66758;52.078;5.070;2023-06-01T10:00:51;102558.81;;;17.01
77599;BMP280;66758;52.078;5.070;2023-06-01T10:03:19;102552.72;;;16.64
77599;BMP280;66758;52.078;5.070;2023-06-01T10:05:46;102546.19;;;16.88
77599;BMP280;66758;52.078;5.070;2023-06-01T10:08:17;102548.97;;;17.35
77599;BMP280;66758;52.078;5.070;2023-06-01T10:10:45;102555.47;;;16.64
77599;BMP280;66758;52.078;5.070;2023-06-01T10:13:11;102563.78;;;15.57
77599;BMP280;66758;52.078;5.070;2023-06-01T10:15:37;102563.69;;;16.77
77599;BMP280;66758;52.078;5.070;2023-06-01T10:18:04;102568.53;;;17.96
77599;BMP280;66758;52.078;5.070;2023-06-01T10:20:34;102559.09;;;18.39
77599;BMP280;66758;52.078;5.070;2023-06-01T10:23:00;102555.47;;;18.16
77599;BMP280;66758;52.078;5.070;2023-06-01T10:25:30;102553.19;;;18.64
77599;BMP280;66758;52.078;5.070;2023-06-01T10:28:02;102564.16;;;17.26
77599;BMP280;66758;52.078;5.070;2023-06-01T10:30:29;102560.22;;;18.80
77599;BMP280;66758;52.078;5.070;2023-06-01T10:32:54;102545.97;;;18.17
77599;BMP280;66758;52.078;5.070;2023-06-01T10:40:40;102562.38;;;17.68
77599;BMP280;66758;52.078;5.070;2023-06-01T10:43:07;102570.34;;;17.70
77599;BMP280;66758;52.078;5.070;2023-06-01T10:48:04;102559.22;;;17.35
77599;BMP280;66758;52.078;5.070;2023-06-01T10:50:39;102554.28;;;17.44
77599;BMP280;66758;52.078;5.070;2023-06-01T10:53:24;102545.63;;;17.80
77599;BMP280;66758;52.078;5.070;2023-06-01T10:58:46;102543.56;;;17.42
77599;BMP280;66758;52.078;5.070;2023-06-01T11:01:18;102540.88;;;18.00
77599;BMP280;66758;52.078;5.070;2023-06-01T11:03:46;102543.22;;;17.98
77599;BMP280;66758;52.078;5.070;2023-06-01T11:06:44;102543.56;;;17.96
77599;BMP280;66758;52.078;5.070;2023-06-01T11:09:11;102534.91;;;18.40
77599;BMP280;66758;52.078;5.070;2023-06-01T11:12:10;102541.47;;;18.09
77599;BMP280;66758;52.078;5.070;2023-06-01T11:14:36;102546.97;;;17.51
77599;BMP280;66758;52.078;5.070;2023-06-01T11:17:25;102547.88;;;17.94
77599;BMP280;66758;52.078;5.070;2023-06-01T11:19:57;102533.50;;;18.08
77599;BMP280;66758;52.078;5.070;2023-06-01T11:22:24;102537.19;;;17.58
77599;BMP280;66758;52.078;5.070;2023-06-01T11:24:51;102541.38;;;17.86
77599;BMP280;66758;52.078;5.070;2023-06-01T11:27:19;102546.56;;;18.26
77599;BMP280;66758;52.078;5.070;2023-06-01T11:29:48;102553.81;;;17.58
77599;BMP280;66758;52.078;5.070;2023-06-01T11:32:15;102541.84;;;17.53
77599;BMP280;66758;52.078;5.070;2023-06-01T11:34:46;102546.97;;;17.51
77599;BMP280;66758;52.078;5.070;2023-06-01T11:37:14;102546.66;;;17.22
77599;BMP280;66758;52.078;5.070;2023-06-01T11:39:40;102535.31;;;17.62
77599;BMP280;66758;52.078;5.070;2023-06-01T11:42:14;102543.63;;;17.62
77599;BMP280;66758;52.078;5.070;2023-06-01T11:44:43;102534.41;;;18.34
77599;BMP280;66758;52.078;5.070;2023-06-01T11:47:10;102535.19;;;17.93
77599;BMP280;66758;52.078;5.070;2023-06-01T11:50:02;102535.00;;;17.67
77599;BMP280;66758;52.078;5.070;2023-06-01T11:52:28;102528.72;;;17.50
77599;BMP280;66758;52.078;5.070;2023-06-01T11:55:03;102539.91;;;17.73
77599;BMP280;66758;52.078;5.070;2023-06-01T11:57:32;102535.03;;;17.16
77599;BMP280;66758;52.078;5.070;2023-06-01T11:59:58;102543.47;;;17.39
77599;BMP280;66758;52.078;5.070;2023-06-01T12:02:26;102543.69;;;17.30
77599;BMP280;66758;52.078;5.070;2023-06-01T12:05:03;102546.38;;;16.64
77599;BMP280;66758;52.078;5.070;2023-06-01T12:07:48;102544.59;;;17.19
77599;BMP280;66758;52.078;5.070;2023-06-01T12:10:18;102539.22;;;16.35
77599;BMP280;66758;52.078;5.070;2023-06-01T12:12:44;102536.19;;;16.99
77599;BMP280;66758;52.078;5.070;2023-06-01T12:15:15;102537.06;;;17.70
77599;BMP280;66758;52.078;5.070;2023-06-01T12:17:48;102552.13;;;16.15
77599;BMP280;66758;52.078;5.070;2023-06-01T12:20:32;102546.38;;;16.64
77599;BMP280;66758;52.078;5.070;2023-06-01T12:23:00;102544.38;;;16.49
77599;BMP280;66758;52.078;5.070;2023-06-01T12:25:31;102536.53;;;16.23
77599;BMP280;66758;52.078;5.070;2023-06-01T12:28:07;102545.91;;;16.18
77599;BMP280;66758;52.078;5.070;2023-06-01T12:30:33;102552.16;;;16.03
77599;BMP280;66758;52.078;5.070;2023-06-01T12:32:59;102543.19;;;16.34
77599;BMP280;66758;52.078;5.070;2023-06-01T12:35:25;102553.72;;;15.76
77599;BMP280;66758;52.078;5.070;2023-06-01T12:38:13;102552.28;;;15.30
77599;BMP280;66758;52.078;5.070;2023-06-01T12:40:39;102537.81;;;15.86
77599;BMP280;66758;52.078;5.070;2023-06-01T12:43:17;102541.69;;;15.97
77599;BMP280;66758;52.078;5.070;2023-06-01T12:45:42;102552.00;;;15.60
77599;BMP280;66758;52.078;5.070;2023-06-01T12:48:08;102543.38;;;15.61
77599;BMP280;66758;52.078;5.070;2023-06-01T12:50:42;102553.53;;;15.57
77599;BMP280;66758;52.078;5.070;2023-06-01T12:53:08;102546.44;;;15.84
77599;BMP280;66758;52.078;5.070;2023-06-01T12:55:34;102549.78;;;15.77
77599;BMP280;66758;52.078;5.070;2023-06-01T12:57:59;102554.94;;;15.39
77599;BMP280;66758;52.078;5.070;2023-06-01T13:00:25;102543.53;;;15.53
77599;BMP280;66758;52.078;5.070;2023-06-01T13:02:51;102531.22;;;15.50
77599;BMP280;66758;52.078;5.070;2023-06-01T13:05:17;102535.66;;;15.67
77599;BMP280;66758;52.078;5.070;2023-06-01T13:07:43;102544.44;;;15.32
77599;BMP280;66758;52.078;5.070;2023-06-01T13:10:13;102535.41;;;15.72
77599;BMP280;66758;52.078;5.070;2023-06-01T13:12:40;102533.97;;;15.38
77599;BMP280;66758;52.078;5.070;2023-06-01T13:15:06;102535.31;;;15.68
77599;BMP280;66758;52.078;5.070;2023-06-01T13:17:32;102538.59;;;15.34
77599;BMP280;66758;52.078;5.070;2023-06-01T13:19:59;102533.63;;;15.52
77599;BMP280;66758;52.078;5.070;2023-06-01T13:22:25;102529.44;;;15.70
77599;BMP280;66758;52.078;5.070;2023-06-01T13:24:51;102527.50;;;14.97
77599;BMP280;66758;52.078;5.070;2023-06-01T13:27:16;102529.38;;;15.06
77599;BMP280;66758;52.078;5.070;2023-06-01T13:29:42;102528.88;;;15.04
77599;BMP280;66758;52.078;5.070;2023-06-01T13:32:08;102536.81;;;14.93
77599;BMP280;66758;52.078;5.070;2023-06-01T13:34:34;102525.91;;;14.96
77599;BMP280;66758;52.078;5.070;2023-06-01T13:37:02;102533.88;;;14.65
77599;BMP280;66758;52.078;5.070;2023-06-01T13:39:28;102528.31;;;14.98
77599;BMP280;66758;52.078;5.070;2023-06-01T13:41:53;102538.13;;;15.08
77599;BMP280;66758;52.078;5.070;2023-06-01T13:44:19;102530.53;;;15.53
77599;BMP280;66758;52.078;5.070;2023-06-01T13:46:44;102529.28;;;15.14
77599;BMP280;66758;52.078;5.070;2023-06-01T13:49:10;102532.16;;;15.30
77599;BMP280;66758;52.078;5.070;2023-06-01T13:51:35;102524.31;;;15.20
77599;BMP280;66758;52.078;5.070;2023-06-01T13:54:04;102512.91;;;15.46
77599;BMP280;66758;52.078;5.070;2023-06-01T13:56:31;102521.78;;;15.39
77599;BMP280;66758;52.078;5.070;2023-06-01T13:58:57;102518.97;;;15.63
77599;BMP280;66758;52.078;5.070;2023-06-01T14:01:23;102518.22;;;15.51
77599;BMP280;66758;52.078;5.070;2023-06-01T14:03:49;102506.81;;;15.52
77599;BMP280;66758;52.078;5.070;2023-06-01T14:06:14;102509.91;;;15.51
77599;BMP280;66758;52.078;5.070;2023-06-01T14:08:40;102517.88;;;15.40
77599;BMP280;66758;52.078;5.070;2023-06-01T14:11:06;102512.97;;;15.73
77599;BMP280;66758;52.078;5.070;2023-06-01T14:13:31;102507.97;;;15.27
77599;BMP280;66758;52.078;5.070;2023-06-01T14:15:56;102505.91;;;15.48
77599;BMP280;66758;52.078;5.070;2023-06-01T14:18:22;102512.34;;;15.28
77599;BMP280;66758;52.078;5.070;2023-06-01T14:20:48;102503.19;;;15.64
77599;BMP280;66758;52.078;5.070;2023-06-01T14:23:13;102502.91;;;15.53
77599;BMP280;66758;52.078;5.070;2023-06-01T14:25:40;102511.88;;;15.38
77599;BMP280;66758;52.078;5.070;2023-06-01T14:28:05;102513.06;;;15.25
77599;BMP280;66758;52.078;5.070;2023-06-01T14:30:31;102506.59;;;15.33
77599;BMP280;66758;52.078;5.070;2023-06-01T14:33:06;102510.63;;;15.11
77599;BMP280;66758;52.078;5.070;2023-06-01T14:35:35;102508.59;;;14.75
77599;BMP280;66758;52.078;5.070;2023-06-01T14:38:05;102519.13;;;14.49
77599;BMP280;66758;52.078;5.070;2023-06-01T14:40:32;102512.66;;;14.45
77599;BMP280;66758;52.078;5.070;2023-06-01T14:42:58;102505.81;;;14.63
77599;BMP280;66758;52.078;5.070;2023-06-01T14:45:23;102504.97;;;15.32
77599;BMP280;66758;52.078;5.070;2023-06-01T14:47:48;102504.38;;;14.78
77599;BMP280;66758;52.078;5.070;2023-06-01T14:50:14;102496.69;;;14.95
77599;BMP280;66758;52.078;5.070;2023-06-01T14:52:40;102495.34;;;15.14
77599;BMP280;66758;52.078;5.070;2023-06-01T14:55:06;102495.53;;;15.45
77599;BMP280;66758;52.078;5.070;2023-06-01T14:57:31;102487.28;;;15.09
77599;BMP280;66758;52.078;5.070;2023-06-01T14:59:57;102482.19;;;14.86
77599;BMP280;66758;52.078;5.070;2023-06-01T15:02:22;102472.28;;;14.97
77599;BMP280;66758;52.078;5.070;2023-06-01T15:04:49;102483.09;;;15.27
77599;BMP280;66758;52.078;5.070;2023-06-01T15:07:14;102478.63;;;15.22
77599;BMP280;66758;52.078;5.070;2023-06-01T15:09:40;102485.50;;;14.92
77599;BMP280;66758;52.078;5.070;2023-06-01T15:12:06;102485.91;;;15.03
77599;BMP280;66758;52.078;5.070;2023-06-01T15:14:31;102463.91;;;15.43
77599;BMP280;66758;52.078;5.070;2023-06-01T15:16:57;102470.34;;;14.98
77599;BMP280;66758;52.078;5.070;2023-06-01T15:19:23;102464.03;;;14.85
77599;BMP280;66758;52.078;5.070;2023-06-01T15:21:48;102469.31;;;14.90
77599;BMP280;66758;52.078;5.070;2023-06-01T15:24:14;102463.19;;;14.73
77599;BMP280;66758;52.078;5.070;2023-06-01T15:26:41;102464.00;;;14.97
77599;BMP280;66758;52.078;5.070;2023-06-01T15:29:07;102464.59;;;15.15
77599;BMP280;66758;52.078;5.070;2023-06-01T15:31:33;102459.31;;;15.22
77599;BMP280;66758;52.078;5.070;2023-06-01T15:33:58;102457.47;;;15.14
77599;BMP280;66758;52.078;5.070;2023-06-01T15:36:23;102456.53;;;15.10
77599;BMP280;66758;52.078;5.070;2023-06-01T15:38:49;102464.47;;;15.36
77599;BMP280;66758;52.078;5.070;2023-06-01T15:41:15;102451.34;;;15.33
77599;BMP280;66758;52.078;5.070;2023-06-01T15:43:40;102454.91;;;15.46
77599;BMP280;66758;52.078;5.070;2023-06-01T15:46:06;102463.78;;;15.27
77599;BMP280;66758;52.078;5.070;2023-06-01T15:48:31;102458.06;;;15.08
77599;BMP280;66758;52.078;5.070;2023-06-01T15:50:57;102462.28;;;15.29
77599;BMP280;66758;52.078;5.070;2023-06-01T15:53:23;102462.75;;;14.95
77599;BMP280;66758;52.078;5.070;2023-06-01T15:55:49;102463.81;;;15.03
77599;BMP280;66758;52.078;5.070;2023-06-01T15:58:16;102462.84;;;14.86
77599;BMP280;66758;52.078;5.070;2023-06-01T16:00:42;102470.19;;;14.70
77599;BMP280;66758;52.078;5.070;2023-06-01T16:03:08;102459.63;;;14.72
77599;BMP280;66758;52.078;5.070;2023-06-01T16:05:33;102467.25;;;14.99
77599;BMP280;66758;52.078;5.070;2023-06-01T16:07:59;102457.13;;;15.04
77599;BMP280;66758;52.078;5.070;2023-06-01T16:10:24;102451.25;;;14.69
77599;BMP280;66758;52.078;5.070;2023-06-01T16:12:50;102444.81;;;14.77
77599;BMP280;66758;52.078;5.070;2023-06-01T16:15:15;102447.81;;;14.84
77599;BMP280;66758;52.078;5.070;2023-06-01T16:17:42;102457.94;;;14.80
77599;BMP280;66758;52.078;5.070;2023-06-01T16:20:09;102442.13;;;14.56
77599;BMP280;66758;52.078;5.070;2023-06-01T16:22:35;102443.06;;;14.72
77599;BMP280;66758;52.078;5.070;2023-06-01T16:25:02;102448.03;;;14.67
77599;BMP280;66758;52.078;5.070;2023-06-01T16:27:29;102440.38;;;14.51
77599;BMP280;66758;52.078;5.070;2023-06-01T16:29:56;102441.06;;;14.48
77599;BMP280;66758;52.078;5.070;2023-06-01T16:32:22;102436.03;;;14.63
77599;BMP280;66758;52.078;5.070;2023-06-01T16:34:55;102435.13;;;14.58
77599;BMP280;66758;52.078;5.070;2023-06-01T16:37:22;102435.13;;;14.58
77599;BMP280;66758;52.078;5.070;2023-06-01T16:39:48;102434.06;;;14.39
77599;BMP280;66758;52.078;5.070;2023-06-01T16:42:13;102435.41;;;14.33
77599;BMP280;66758;52.078;5.070;2023-06-01T16:44:39;102433.31;;;14.30
77599;BMP280;66758;52.078;5.070;2023-06-01T16:47:04;102429.53;;;14.34
77599;BMP280;66758;52.078;5.070;2023-06-01T16:49:30;102430.28;;;14.10
77599;BMP280;66758;52.078;5.070;2023-06-01T16:51:55;102433.63;;;14.16
77599;BMP280;66758;52.078;5.070;2023-06-01T16:54:21;102432.19;;;14.31
77599;BMP280;66758;52.078;5.070;2023-06-01T16:56:46;102425.38;;;14.28
77599;BMP280;66758;52.078;5.070;2023-06-01T16:59:12;102423.00;;;14.27
77599;BMP280;66758;52.078;5.070;2023-06-01T17:01:38;102431.22;;;14.14
77599;BMP280;66758;52.078;5.070;2023-06-01T17:04:05;102423.03;;;14.06
77599;BMP280;66758;52.078;5.070;2023-06-01T17:06:32;102421.94;;;13.98
77599;BMP280;66758;52.078;5.070;2023-06-01T17:08:58;102427.88;;;13.88
77599;BMP280;66758;52.078;5.070;2023-06-01T17:11:23;102424.81;;;13.90
77599;BMP280;66758;52.078;5.070;2023-06-01T17:14:01;102438.09;;;13.88
77599;BMP280;66758;52.078;5.070;2023-06-01T17:16:27;102423.03;;;13.85
77599;BMP280;66758;52.078;5.070;2023-06-01T17:18:52;102425.34;;;13.83
77599;BMP280;66758;52.078;5.070;2023-06-01T17:21:18;102425.19;;;14.00
77599;BMP280;66758;52.078;5.070;2023-06-01T17:23:46;102431.34;;;13.97
77599;BMP280;66758;52.078;5.070;2023-06-01T17:26:13;102426.81;;;13.81
77599;BMP280;66758;52.078;5.070;2023-06-01T17:28:40;102428.22;;;13.87
77599;BMP280;66758;52.078;5.070;2023-06-01T17:31:06;102430.03;;;13.83
77599;BMP280;66758;52.078;5.070;2023-06-01T17:33:32;102419.00;;;13.62
77599;BMP280;66758;52.078;5.070;2023-06-01T17:35:58;102420.03;;;13.57
77599;BMP280;66758;52.078;5.070;2023-06-01T17:38:23;102424.41;;;13.58
77599;BMP280;66758;52.078;5.070;2023-06-01T17:40:49;102427.41;;;13.45
77599;BMP280;66758;52.078;5.070;2023-06-01T17:43:14;102420.28;;;13.44